sensor_id;sensor_type;location;lat;lon;timestamp;P1;durP1;ratioP1;P2;durP2;ratioP2
61200;SDS011;47065;52.898;6.992;2023-04-24T00:00:32;1.27;;;1.17;;
61200;SDS011;47065;52.898;6.992;2023-04-24T00:02:58;1.50;;;1.40;;
61200;SDS011;47065;52.898;6.992;2023-04-24T00:05:24;2.15;;;1.55;;
61200;SDS011;47065;52.898;6.992;2023-04-24T00:07:49;2.10;;;1.83;;
61200;SDS011;47065;52.898;6.992;2023-04-24T00:10:18;2.65;;;2.45;;
61200;SDS011;47065;52.898;6.992;2023-04-24T00:12:44;2.50;;;2.30;;
61200;SDS011;47065;52.898;6.992;2023-04-24T00:15:10;2.72;;;2.40;;
61200;SDS011;47065;52.898;6.992;2023-04-24T00:17:35;4.30;;;3.25;;
61200;SDS011;47065;52.898;6.992;2023-04-24T00:20:01;2.95;;;2.70;;
61200;SDS011;47065;52.898;6.992;2023-04-24T00:22:29;4.22;;;3.83;;
61200;SDS011;47065;52.898;6.992;2023-04-24T00:24:55;4.18;;;3.78;;
61200;SDS011;47065;52.898;6.992;2023-04-24T00:27:21;3.60;;;3.30;;
61200;SDS011;47065;52.898;6.992;2023-04-24T00:29:47;4.75;;;4.28;;
61200;SDS011;47065;52.898;6.992;2023-04-24T00:32:13;4.88;;;4.20;;
61200;SDS011;47065;52.898;6.992;2023-04-24T00:34:39;4.53;;;4.10;;
61200;SDS011;47065;52.898;6.992;2023-04-24T00:37:05;4.65;;;4.13;;
61200;SDS011;47065;52.898;6.992;2023-04-24T00:39:31;5.30;;;4.80;;
61200;SDS011;47065;52.898;6.992;2023-04-24T00:41:57;6.30;;;4.90;;
61200;SDS011;47065;52.898;6.992;2023-04-24T00:44:22;6.47;;;5.88;;
61200;SDS011;47065;52.898;6.992;2023-04-24T00:46:48;6.72;;;5.80;;
61200;SDS011;47065;52.898;6.992;2023-04-24T00:49:20;5.97;;;5.13;;
61200;SDS011;47065;52.898;6.992;2023-04-24T00:51:46;5.65;;;4.90;;
61200;SDS011;47065;52.898;6.992;2023-04-24T00:54:14;4.40;;;4.00;;
61200;SDS011;47065;52.898;6.992;2023-04-24T00:56:40;3.95;;;3.65;;
61200;SDS011;47065;52.898;6.992;2023-04-24T00:59:07;5.90;;;3.95;;
61200;SDS011;47065;52.898;6.992;2023-04-24T01:01:33;3.40;;;3.20;;
61200;SDS011;47065;52.898;6.992;2023-04-24T01:03:59;3.38;;;3.13;;
61200;SDS011;47065;52.898;6.992;2023-04-24T01:06:27;3.50;;;2.60;;
61200;SDS011;47065;52.898;6.992;2023-04-24T01:08:56;3.15;;;2.85;;
61200;SDS011;47065;52.898;6.992;2023-04-24T01:11:22;3.53;;;3.22;;
61200;SDS011;47065;52.898;6.992;2023-04-24T01:13:48;3.65;;;3.35;;
61200;SDS011;47065;52.898;6.992;2023-04-24T01:16:14;4.30;;;3.90;;
61200;SDS011;47065;52.898;6.992;2023-04-24T01:18:42;3.47;;;3.05;;
61200;SDS011;47065;52.898;6.992;2023-04-24T01:21:08;4.15;;;3.85;;
61200;SDS011;47065;52.898;6.992;2023-04-24T01:23:35;4.35;;;3.95;;
61200;SDS011;47065;52.898;6.992;2023-04-24T01:26:00;5.93;;;4.25;;
61200;SDS011;47065;52.898;6.992;2023-04-24T01:28:26;4.03;;;3.53;;
61200;SDS011;47065;52.898;6.992;2023-04-24T01:30:52;6.90;;;4.20;;
61200;SDS011;47065;52.898;6.992;2023-04-24T01:33:18;4.20;;;3.80;;
61200;SDS011;47065;52.898;6.992;2023-04-24T01:35:46;5.35;;;4.43;;
61200;SDS011;47065;52.898;6.992;2023-04-24T01:38:13;4.47;;;4.07;;
61200;SDS011;47065;52.898;6.992;2023-04-24T01:40:39;4.88;;;4.47;;
61200;SDS011;47065;52.898;6.992;2023-04-24T01:43:05;5.43;;;4.97;;
61200;SDS011;47065;52.898;6.992;2023-04-24T01:45:30;4.22;;;3.92;;
61200;SDS011;47065;52.898;6.992;2023-04-24T01:47:56;4.82;;;4.43;;
61200;SDS011;47065;52.898;6.992;2023-04-24T01:50:22;5.00;;;4.60;;
61200;SDS011;47065;52.898;6.992;2023-04-24T01:52:47;5.75;;;5.25;;
61200;SDS011;47065;52.898;6.992;2023-04-24T01:55:13;5.13;;;4.72;;
61200;SDS011;47065;52.898;6.992;2023-04-24T01:57:39;4.97;;;4.47;;
61200;SDS011;47065;52.898;6.992;2023-04-24T02:00:05;5.10;;;4.60;;
61200;SDS011;47065;52.898;6.992;2023-04-24T02:02:32;4.85;;;4.38;;
61200;SDS011;47065;52.898;6.992;2023-04-24T02:04:57;5.10;;;4.60;;
61200;SDS011;47065;52.898;6.992;2023-04-24T02:07:23;6.50;;;5.28;;
61200;SDS011;47065;52.898;6.992;2023-04-24T02:09:49;6.57;;;5.88;;
61200;SDS011;47065;52.898;6.992;2023-04-24T02:12:15;9.65;;;7.15;;
61200;SDS011;47065;52.898;6.992;2023-04-24T02:14:42;7.97;;;6.60;;
61200;SDS011;47065;52.898;6.992;2023-04-24T02:17:08;6.95;;;6.25;;
61200;SDS011;47065;52.898;6.992;2023-04-24T02:19:34;7.57;;;6.78;;
61200;SDS011;47065;52.898;6.992;2023-04-24T02:22:00;10.00;;;8.30;;
61200;SDS011;47065;52.898;6.992;2023-04-24T02:24:25;11.38;;;8.85;;
61200;SDS011;47065;52.898;6.992;2023-04-24T02:26:51;9.50;;;7.97;;
61200;SDS011;47065;52.898;6.992;2023-04-24T02:29:17;10.52;;;8.05;;
61200;SDS011;47065;52.898;6.992;2023-04-24T02:31:42;10.93;;;8.98;;
61200;SDS011;47065;52.898;6.992;2023-04-24T02:34:08;11.40;;;9.07;;
61200;SDS011;47065;52.898;6.992;2023-04-24T02:36:34;10.80;;;8.77;;
61200;SDS011;47065;52.898;6.992;2023-04-24T02:38:59;10.32;;;8.98;;
61200;SDS011;47065;52.898;6.992;2023-04-24T02:41:26;10.55;;;8.48;;
61200;SDS011;47065;52.898;6.992;2023-04-24T02:43:56;12.30;;;9.27;;
61200;SDS011;47065;52.898;6.992;2023-04-24T02:46:22;10.38;;;8.30;;
61200;SDS011;47065;52.898;6.992;2023-04-24T02:48:48;10.52;;;8.52;;
61200;SDS011;47065;52.898;6.992;2023-04-24T02:51:13;9.43;;;8.45;;
61200;SDS011;47065;52.898;6.992;2023-04-24T02:53:39;12.50;;;8.65;;
61200;SDS011;47065;52.898;6.992;2023-04-24T02:56:05;12.27;;;9.05;;
61200;SDS011;47065;52.898;6.992;2023-04-24T02:58:31;10.98;;;8.63;;
61200;SDS011;47065;52.898;6.992;2023-04-24T03:00:56;12.27;;;9.35;;
61200;SDS011;47065;52.898;6.992;2023-04-24T03:03:22;10.82;;;9.13;;
61200;SDS011;47065;52.898;6.992;2023-04-24T03:05:48;11.38;;;10.18;;
61200;SDS011;47065;52.898;6.992;2023-04-24T03:08:14;14.48;;;10.07;;
61200;SDS011;47065;52.898;6.992;2023-04-24T03:10:40;12.48;;;9.43;;
61200;SDS011;47065;52.898;6.992;2023-04-24T03:13:05;11.30;;;9.27;;
61200;SDS011;47065;52.898;6.992;2023-04-24T03:15:31;12.55;;;8.93;;
61200;SDS011;47065;52.898;6.992;2023-04-24T03:17:57;10.93;;;7.82;;
61200;SDS011;47065;52.898;6.992;2023-04-24T03:20:23;9.80;;;8.27;;
61200;SDS011;47065;52.898;6.992;2023-04-24T03:22:48;9.30;;;7.43;;
61200;SDS011;47065;52.898;6.992;2023-04-24T03:25:14;8.75;;;7.75;;
61200;SDS011;47065;52.898;6.992;2023-04-24T03:27:40;8.38;;;7.22;;
61200;SDS011;47065;52.898;6.992;2023-04-24T03:30:06;8.30;;;7.22;;
61200;SDS011;47065;52.898;6.992;2023-04-24T03:32:32;9.10;;;6.82;;
61200;SDS011;47065;52.898;6.992;2023-04-24T03:34:58;9.25;;;7.65;;
61200;SDS011;47065;52.898;6.992;2023-04-24T03:37:24;11.77;;;8.05;;
61200;SDS011;47065;52.898;6.992;2023-04-24T03:39:49;9.00;;;7.95;;
61200;SDS011;47065;52.898;6.992;2023-04-24T03:42:15;10.77;;;7.93;;
61200;SDS011;47065;52.898;6.992;2023-04-24T03:44:40;10.68;;;7.93;;
61200;SDS011;47065;52.898;6.992;2023-04-24T03:47:06;10.20;;;7.47;;
61200;SDS011;47065;52.898;6.992;2023-04-24T03:49:32;10.15;;;8.27;;
61200;SDS011;47065;52.898;6.992;2023-04-24T03:51:57;9.85;;;8.07;;
61200;SDS011;47065;52.898;6.992;2023-04-24T03:54:23;8.63;;;7.05;;
61200;SDS011;47065;52.898;6.992;2023-04-24T03:56:48;9.88;;;7.55;;
61200;SDS011;47065;52.898;6.992;2023-04-24T03:59:14;10.45;;;8.20;;
61200;SDS011;47065;52.898;6.992;2023-04-24T04:01:40;9.07;;;7.85;;
61200;SDS011;47065;52.898;6.992;2023-04-24T04:04:06;9.75;;;8.45;;
61200;SDS011;47065;52.898;6.992;2023-04-24T04:06:32;10.13;;;8.15;;
61200;SDS011;47065;52.898;6.992;2023-04-24T04:08:58;11.27;;;8.70;;
61200;SDS011;47065;52.898;6.992;2023-04-24T04:11:24;12.65;;;8.32;;
61200;SDS011;47065;52.898;6.992;2023-04-24T04:13:50;10.38;;;8.95;;
61200;SDS011;47065;52.898;6.992;2023-04-24T04:16:16;11.23;;;8.80;;
61200;SDS011;47065;52.898;6.992;2023-04-24T04:18:45;9.35;;;8.15;;
61200;SDS011;47065;52.898;6.992;2023-04-24T04:21:11;13.00;;;9.63;;
61200;SDS011;47065;52.898;6.992;2023-04-24T04:23:36;10.15;;;8.35;;
61200;SDS011;47065;52.898;6.992;2023-04-24T04:26:02;9.45;;;8.38;;
61200;SDS011;47065;52.898;6.992;2023-04-24T04:28:29;16.23;;;8.85;;
61200;SDS011;47065;52.898;6.992;2023-04-24T04:30:56;9.43;;;7.50;;
61200;SDS011;47065;52.898;6.992;2023-04-24T04:33:23;8.18;;;7.15;;
61200;SDS011;47065;52.898;6.992;2023-04-24T04:35:49;8.27;;;6.30;;
61200;SDS011;47065;52.898;6.992;2023-04-24T04:38:17;8.57;;;7.18;;
61200;SDS011;47065;52.898;6.992;2023-04-24T04:40:43;8.48;;;7.10;;
61200;SDS011;47065;52.898;6.992;2023-04-24T04:43:09;9.15;;;7.30;;
61200;SDS011;47065;52.898;6.992;2023-04-24T04:45:36;11.57;;;7.75;;
61200;SDS011;47065;52.898;6.992;2023-04-24T04:48:04;9.05;;;6.55;;
61200;SDS011;47065;52.898;6.992;2023-04-24T04:50:32;10.10;;;7.88;;
61200;SDS011;47065;52.898;6.992;2023-04-24T04:52:58;11.30;;;8.60;;
61200;SDS011;47065;52.898;6.992;2023-04-24T04:55:23;9.60;;;7.88;;
61200;SDS011;47065;52.898;6.992;2023-04-24T04:57:50;11.00;;;7.93;;
61200;SDS011;47065;52.898;6.992;2023-04-24T05:00:16;10.60;;;7.97;;
61200;SDS011;47065;52.898;6.992;2023-04-24T05:02:41;11.15;;;7.72;;
61200;SDS011;47065;52.898;6.992;2023-04-24T05:05:07;12.07;;;8.20;;
61200;SDS011;47065;52.898;6.992;2023-04-24T05:07:33;10.93;;;8.88;;
61200;SDS011;47065;52.898;6.992;2023-04-24T05:09:59;12.00;;;8.45;;
61200;SDS011;47065;52.898;6.992;2023-04-24T05:12:25;8.27;;;7.20;;
61200;SDS011;47065;52.898;6.992;2023-04-24T05:14:50;11.32;;;7.78;;
61200;SDS011;47065;52.898;6.992;2023-04-24T05:17:16;9.88;;;7.90;;
61200;SDS011;47065;52.898;6.992;2023-04-24T05:19:42;10.13;;;7.32;;
61200;SDS011;47065;52.898;6.992;2023-04-24T05:22:08;10.13;;;7.82;;
61200;SDS011;47065;52.898;6.992;2023-04-24T05:24:34;9.60;;;7.60;;
61200;SDS011;47065;52.898;6.992;2023-04-24T05:27:01;9.48;;;7.78;;
61200;SDS011;47065;52.898;6.992;2023-04-24T05:29:27;9.68;;;7.63;;
61200;SDS011;47065;52.898;6.992;2023-04-24T05:31:55;9.07;;;7.35;;
61200;SDS011;47065;52.898;6.992;2023-04-24T05:34:22;9.40;;;7.97;;
61200;SDS011;47065;52.898;6.992;2023-04-24T05:36:47;9.32;;;7.65;;
61200;SDS011;47065;52.898;6.992;2023-04-24T05:39:13;9.60;;;7.65;;
61200;SDS011;47065;52.898;6.992;2023-04-24T05:41:40;7.85;;;6.53;;
61200;SDS011;47065;52.898;6.992;2023-04-24T05:44:05;8.77;;;6.97;;
61200;SDS011;47065;52.898;6.992;2023-04-24T05:46:31;7.13;;;6.43;;
61200;SDS011;47065;52.898;6.992;2023-04-24T05:48:57;8.38;;;6.88;;
61200;SDS011;47065;52.898;6.992;2023-04-24T05:51:23;8.73;;;6.53;;
61200;SDS011;47065;52.898;6.992;2023-04-24T05:53:49;6.95;;;6.25;;
61200;SDS011;47065;52.898;6.992;2023-04-24T05:56:14;4.55;;;3.95;;
61200;SDS011;47065;52.898;6.992;2023-04-24T05:58:41;6.25;;;4.55;;
61200;SDS011;47065;52.898;6.992;2023-04-24T06:01:07;4.95;;;4.45;;
61200;SDS011;47065;52.898;6.992;2023-04-24T06:03:32;8.05;;;4.18;;
61200;SDS011;47065;52.898;6.992;2023-04-24T06:05:58;4.32;;;3.90;;
61200;SDS011;47065;52.898;6.992;2023-04-24T06:08:24;3.83;;;3.42;;
61200;SDS011;47065;52.898;6.992;2023-04-24T06:10:50;4.43;;;3.28;;
61200;SDS011;47065;52.898;6.992;2023-04-24T06:13:18;5.32;;;3.50;;
61200;SDS011;47065;52.898;6.992;2023-04-24T06:15:44;4.13;;;3.50;;
61200;SDS011;47065;52.898;6.992;2023-04-24T06:18:10;4.05;;;3.55;;
61200;SDS011;47065;52.898;6.992;2023-04-24T06:20:36;6.45;;;4.35;;
61200;SDS011;47065;52.898;6.992;2023-04-24T06:23:01;4.05;;;3.58;;
61200;SDS011;47065;52.898;6.992;2023-04-24T06:25:27;5.85;;;4.00;;
61200;SDS011;47065;52.898;6.992;2023-04-24T06:27:53;5.65;;;3.95;;
61200;SDS011;47065;52.898;6.992;2023-04-24T06:30:20;5.43;;;3.47;;
61200;SDS011;47065;52.898;6.992;2023-04-24T06:32:45;4.63;;;3.35;;
61200;SDS011;47065;52.898;6.992;2023-04-24T06:35:11;4.82;;;4.32;;
61200;SDS011;47065;52.898;6.992;2023-04-24T06:37:38;3.78;;;3.33;;
61200;SDS011;47065;52.898;6.992;2023-04-24T06:40:05;3.75;;;3.10;;
61200;SDS011;47065;52.898;6.992;2023-04-24T06:42:33;2.60;;;2.40;;
61200;SDS011;47065;52.898;6.992;2023-04-24T06:45:00;2.35;;;2.17;;
61200;SDS011;47065;52.898;6.992;2023-04-24T06:47:26;3.17;;;2.88;;
61200;SDS011;47065;52.898;6.992;2023-04-24T06:49:51;2.45;;;2.25;;
61200;SDS011;47065;52.898;6.992;2023-04-24T06:52:17;3.75;;;2.58;;
61200;SDS011;47065;52.898;6.992;2023-04-24T06:54:43;2.53;;;2.33;;
61200;SDS011;47065;52.898;6.992;2023-04-24T06:57:09;2.10;;;2.00;;
61200;SDS011;47065;52.898;6.992;2023-04-24T06:59:35;2.90;;;2.30;;
61200;SDS011;47065;52.898;6.992;2023-04-24T07:02:01;2.03;;;1.88;;
61200;SDS011;47065;52.898;6.992;2023-04-24T07:04:28;2.40;;;2.00;;
61200;SDS011;47065;52.898;6.992;2023-04-24T07:06:54;2.55;;;2.28;;
61200;SDS011;47065;52.898;6.992;2023-04-24T07:09:20;3.00;;;2.15;;
61200;SDS011;47065;52.898;6.992;2023-04-24T07:11:47;2.88;;;1.98;;
61200;SDS011;47065;52.898;6.992;2023-04-24T07:14:13;3.30;;;2.58;;
61200;SDS011;47065;52.898;6.992;2023-04-24T07:16:38;3.53;;;2.25;;
61200;SDS011;47065;52.898;6.992;2023-04-24T07:19:04;2.85;;;2.40;;
61200;SDS011;47065;52.898;6.992;2023-04-24T07:21:30;3.38;;;2.45;;
61200;SDS011;47065;52.898;6.992;2023-04-24T07:23:57;3.63;;;2.72;;
61200;SDS011;47065;52.898;6.992;2023-04-24T07:26:23;4.50;;;2.83;;
61200;SDS011;47065;52.898;6.992;2023-04-24T07:28:49;3.10;;;2.80;;
61200;SDS011;47065;52.898;6.992;2023-04-24T07:31:14;4.13;;;2.80;;
61200;SDS011;47065;52.898;6.992;2023-04-24T07:33:40;4.40;;;3.00;;
61200;SDS011;47065;52.898;6.992;2023-04-24T07:36:05;5.53;;;2.80;;
61200;SDS011;47065;52.898;6.992;2023-04-24T07:38:31;6.07;;;3.25;;
61200;SDS011;47065;52.898;6.992;2023-04-24T07:40:57;5.43;;;3.10;;
61200;SDS011;47065;52.898;6.992;2023-04-24T07:43:22;4.72;;;3.05;;
61200;SDS011;47065;52.898;6.992;2023-04-24T07:45:49;4.03;;;2.78;;
61200;SDS011;47065;52.898;6.992;2023-04-24T07:48:15;5.28;;;3.50;;
61200;SDS011;47065;52.898;6.992;2023-04-24T07:50:42;3.42;;;2.67;;
61200;SDS011;47065;52.898;6.992;2023-04-24T07:53:08;5.07;;;2.90;;
61200;SDS011;47065;52.898;6.992;2023-04-24T07:55:35;4.55;;;3.10;;
61200;SDS011;47065;52.898;6.992;2023-04-24T07:58:00;5.60;;;3.40;;
61200;SDS011;47065;52.898;6.992;2023-04-24T08:00:26;5.38;;;4.15;;
61200;SDS011;47065;52.898;6.992;2023-04-24T08:02:52;8.25;;;5.30;;
61200;SDS011;47065;52.898;6.992;2023-04-24T08:05:17;13.70;;;6.82;;
61200;SDS011;47065;52.898;6.992;2023-04-24T08:07:43;13.30;;;6.97;;
61200;SDS011;47065;52.898;6.992;2023-04-24T08:10:11;12.00;;;6.20;;
61200;SDS011;47065;52.898;6.992;2023-04-24T08:12:37;12.02;;;8.43;;
61200;SDS011;47065;52.898;6.992;2023-04-24T08:15:03;14.43;;;7.70;;
61200;SDS011;47065;52.898;6.992;2023-04-24T08:17:29;11.63;;;6.45;;
61200;SDS011;47065;52.898;6.992;2023-04-24T08:19:55;8.27;;;5.53;;
61200;SDS011;47065;52.898;6.992;2023-04-24T08:22:26;9.23;;;5.13;;
61200;SDS011;47065;52.898;6.992;2023-04-24T08:24:52;7.85;;;3.95;;
61200;SDS011;47065;52.898;6.992;2023-04-24T08:27:18;4.07;;;3.15;;
61200;SDS011;47065;52.898;6.992;2023-04-24T08:29:44;5.10;;;2.60;;
61200;SDS011;47065;52.898;6.992;2023-04-24T08:32:09;2.47;;;2.00;;
61200;SDS011;47065;52.898;6.992;2023-04-24T08:34:35;4.90;;;2.17;;
61200;SDS011;47065;52.898;6.992;2023-04-24T08:37:01;5.38;;;2.92;;
61200;SDS011;47065;52.898;6.992;2023-04-24T08:39:27;4.57;;;2.80;;
61200;SDS011;47065;52.898;6.992;2023-04-24T08:41:55;10.07;;;3.75;;
61200;SDS011;47065;52.898;6.992;2023-04-24T08:44:21;7.60;;;4.18;;
61200;SDS011;47065;52.898;6.992;2023-04-24T08:46:47;6.32;;;4.05;;
61200;SDS011;47065;52.898;6.992;2023-04-24T08:49:14;6.45;;;4.68;;
61200;SDS011;47065;52.898;6.992;2023-04-24T08:51:42;6.63;;;5.03;;
61200;SDS011;47065;52.898;6.992;2023-04-24T08:54:09;7.57;;;4.22;;
61200;SDS011;47065;52.898;6.992;2023-04-24T08:56:37;9.30;;;3.72;;
61200;SDS011;47065;52.898;6.992;2023-04-24T08:59:05;10.82;;;4.00;;
61200;SDS011;47065;52.898;6.992;2023-04-24T09:01:32;13.38;;;4.88;;
61200;SDS011;47065;52.898;6.992;2023-04-24T09:03:59;15.80;;;6.50;;
61200;SDS011;47065;52.898;6.992;2023-04-24T09:06:28;15.55;;;7.68;;
61200;SDS011;47065;52.898;6.992;2023-04-24T09:08:57;16.45;;;8.95;;
61200;SDS011;47065;52.898;6.992;2023-04-24T09:11:26;22.38;;;9.70;;
61200;SDS011;47065;52.898;6.992;2023-04-24T09:13:53;29.50;;;13.82;;
61200;SDS011;47065;52.898;6.992;2023-04-24T09:16:19;31.30;;;14.82;;
61200;SDS011;47065;52.898;6.992;2023-04-24T09:18:45;33.58;;;16.27;;
61200;SDS011;47065;52.898;6.992;2023-04-24T09:21:11;31.52;;;14.70;;
61200;SDS011;47065;52.898;6.992;2023-04-24T09:23:37;29.27;;;15.50;;
61200;SDS011;47065;52.898;6.992;2023-04-24T09:26:04;29.67;;;15.30;;
61200;SDS011;47065;52.898;6.992;2023-04-24T09:33:38;37.35;;;17.63;;
61200;SDS011;47065;52.898;6.992;2023-04-24T09:36:03;34.90;;;17.75;;
61200;SDS011;47065;52.898;6.992;2023-04-24T09:38:31;35.78;;;19.40;;
61200;SDS011;47065;52.898;6.992;2023-04-24T09:41:05;33.53;;;17.83;;
61200;SDS011;47065;52.898;6.992;2023-04-24T09:43:32;31.38;;;17.45;;
61200;SDS011;47065;52.898;6.992;2023-04-24T09:45:58;30.58;;;16.05;;
61200;SDS011;47065;52.898;6.992;2023-04-24T09:48:32;36.55;;;19.35;;
61200;SDS011;47065;52.898;6.992;2023-04-24T09:51:00;35.45;;;18.70;;
61200;SDS011;47065;52.898;6.992;2023-04-24T09:53:27;28.63;;;15.90;;
61200;SDS011;47065;52.898;6.992;2023-04-24T09:55:53;32.55;;;18.17;;
61200;SDS011;47065;52.898;6.992;2023-04-24T09:58:24;40.17;;;18.25;;
61200;SDS011;47065;52.898;6.992;2023-04-24T10:00:53;37.13;;;18.58;;
61200;SDS011;47065;52.898;6.992;2023-04-24T10:03:19;38.17;;;18.85;;
61200;SDS011;47065;52.898;6.992;2023-04-24T10:05:46;29.58;;;17.67;;
61200;SDS011;47065;52.898;6.992;2023-04-24T10:08:12;33.35;;;18.83;;
61200;SDS011;47065;52.898;6.992;2023-04-24T10:10:39;32.90;;;18.20;;
61200;SDS011;47065;52.898;6.992;2023-04-24T10:13:06;30.60;;;17.17;;
61200;SDS011;47065;52.898;6.992;2023-04-24T10:15:34;31.80;;;18.85;;
61200;SDS011;47065;52.898;6.992;2023-04-24T10:18:00;39.30;;;19.98;;
61200;SDS011;47065;52.898;6.992;2023-04-24T10:20:28;31.38;;;16.80;;
61200;SDS011;47065;52.898;6.992;2023-04-24T10:22:57;27.67;;;17.25;;
61200;SDS011;47065;52.898;6.992;2023-04-24T10:25:24;27.92;;;16.45;;
61200;SDS011;47065;52.898;6.992;2023-04-24T10:27:52;27.50;;;15.90;;
61200;SDS011;47065;52.898;6.992;2023-04-24T10:30:22;32.22;;;17.40;;
61200;SDS011;47065;52.898;6.992;2023-04-24T10:32:48;29.98;;;15.70;;
61200;SDS011;47065;52.898;6.992;2023-04-24T10:35:14;28.85;;;16.50;;
61200;SDS011;47065;52.898;6.992;2023-04-24T10:37:45;26.65;;;15.52;;
61200;SDS011;47065;52.898;6.992;2023-04-24T10:40:17;25.70;;;16.73;;
61200;SDS011;47065;52.898;6.992;2023-04-24T10:42:47;29.70;;;15.90;;
61200;SDS011;47065;52.898;6.992;2023-04-24T10:45:17;27.92;;;15.88;;
61200;SDS011;47065;52.898;6.992;2023-04-24T10:50:41;29.67;;;15.95;;
61200;SDS011;47065;52.898;6.992;2023-04-24T10:53:13;21.40;;;15.05;;
61200;SDS011;47065;52.898;6.992;2023-04-24T10:55:49;23.38;;;14.98;;
61200;SDS011;47065;52.898;6.992;2023-04-24T10:58:21;27.63;;;15.05;;
61200;SDS011;47065;52.898;6.992;2023-04-24T11:00:58;21.80;;;13.10;;
61200;SDS011;47065;52.898;6.992;2023-04-24T11:06:00;24.92;;;14.68;;
61200;SDS011;47065;52.898;6.992;2023-04-24T11:08:28;26.83;;;14.68;;
61200;SDS011;47065;52.898;6.992;2023-04-24T11:10:59;31.20;;;14.05;;
61200;SDS011;47065;52.898;6.992;2023-04-24T11:16:34;21.20;;;8.82;;
61200;SDS011;47065;52.898;6.992;2023-04-24T11:19:01;24.08;;;8.55;;
61200;SDS011;47065;52.898;6.992;2023-04-24T11:21:48;17.10;;;7.05;;
61200;SDS011;47065;52.898;6.992;2023-04-24T11:24:25;15.80;;;6.90;;
61200;SDS011;47065;52.898;6.992;2023-04-24T11:26:51;12.98;;;6.32;;
61200;SDS011;47065;52.898;6.992;2023-04-24T11:29:20;18.95;;;6.28;;
61200;SDS011;47065;52.898;6.992;2023-04-24T11:31:46;14.02;;;5.65;;
61200;SDS011;47065;52.898;6.992;2023-04-24T11:34:16;10.27;;;5.63;;
61200;SDS011;47065;52.898;6.992;2023-04-24T11:36:43;12.93;;;6.68;;
61200;SDS011;47065;52.898;6.992;2023-04-24T11:39:10;13.40;;;5.32;;
61200;SDS011;47065;52.898;6.992;2023-04-24T11:41:36;14.88;;;5.20;;
61200;SDS011;47065;52.898;6.992;2023-04-24T11:44:03;10.23;;;4.35;;
61200;SDS011;47065;52.898;6.992;2023-04-24T11:46:31;16.88;;;5.60;;
61200;SDS011;47065;52.898;6.992;2023-04-24T11:48:57;13.45;;;4.95;;
61200;SDS011;47065;52.898;6.992;2023-04-24T11:51:24;12.13;;;5.70;;
61200;SDS011;47065;52.898;6.992;2023-04-24T11:53:51;11.20;;;5.28;;
61200;SDS011;47065;52.898;6.992;2023-04-24T11:56:23;10.20;;;4.63;;
61200;SDS011;47065;52.898;6.992;2023-04-24T11:58:51;8.10;;;4.13;;
61200;SDS011;47065;52.898;6.992;2023-04-24T12:01:18;11.93;;;3.50;;
61200;SDS011;47065;52.898;6.992;2023-04-24T12:03:47;12.07;;;3.20;;
61200;SDS011;47065;52.898;6.992;2023-04-24T12:06:13;6.43;;;3.15;;
61200;SDS011;47065;52.898;6.992;2023-04-24T12:08:39;6.15;;;3.55;;
61200;SDS011;47065;52.898;6.992;2023-04-24T12:11:06;10.50;;;4.10;;
61200;SDS011;47065;52.898;6.992;2023-04-24T12:13:32;7.03;;;3.13;;
61200;SDS011;47065;52.898;6.992;2023-04-24T12:15:59;9.55;;;3.20;;
61200;SDS011;47065;52.898;6.992;2023-04-24T12:18:26;17.60;;;4.75;;
61200;SDS011;47065;52.898;6.992;2023-04-24T12:20:52;8.48;;;2.30;;
61200;SDS011;47065;52.898;6.992;2023-04-24T12:23:33;9.00;;;2.90;;
61200;SDS011;47065;52.898;6.992;2023-04-24T12:28:34;7.60;;;2.88;;
61200;SDS011;47065;52.898;6.992;2023-04-24T12:31:01;12.15;;;2.78;;
61200;SDS011;47065;52.898;6.992;2023-04-24T12:33:27;7.38;;;3.65;;
61200;SDS011;47065;52.898;6.992;2023-04-24T12:35:52;9.98;;;2.30;;
61200;SDS011;47065;52.898;6.992;2023-04-24T12:38:22;9.98;;;3.03;;
61200;SDS011;47065;52.898;6.992;2023-04-24T12:41:00;8.63;;;2.10;;
61200;SDS011;47065;52.898;6.992;2023-04-24T12:43:34;10.30;;;2.33;;
61200;SDS011;47065;52.898;6.992;2023-04-24T12:45:59;4.75;;;2.60;;
61200;SDS011;47065;52.898;6.992;2023-04-24T12:48:28;15.02;;;3.42;;
61200;SDS011;47065;52.898;6.992;2023-04-24T12:50:54;11.02;;;3.20;;
61200;SDS011;47065;52.898;6.992;2023-04-24T12:53:21;5.38;;;3.13;;
61200;SDS011;47065;52.898;6.992;2023-04-24T12:55:47;11.80;;;2.83;;
61200;SDS011;47065;52.898;6.992;2023-04-24T12:58:18;9.40;;;2.95;;
61200;SDS011;47065;52.898;6.992;2023-04-24T13:00:47;11.30;;;2.63;;
61200;SDS011;47065;52.898;6.992;2023-04-24T13:03:13;8.18;;;2.45;;
61200;SDS011;47065;52.898;6.992;2023-04-24T13:05:39;8.38;;;2.95;;
61200;SDS011;47065;52.898;6.992;2023-04-24T13:08:05;4.18;;;2.13;;
61200;SDS011;47065;52.898;6.992;2023-04-24T13:10:31;7.28;;;2.00;;
61200;SDS011;47065;52.898;6.992;2023-04-24T13:12:57;6.43;;;2.05;;
61200;SDS011;47065;52.898;6.992;2023-04-24T13:15:22;8.43;;;1.73;;
61200;SDS011;47065;52.898;6.992;2023-04-24T13:17:48;4.57;;;1.42;;
61200;SDS011;47065;52.898;6.992;2023-04-24T13:20:14;3.22;;;1.20;;
61200;SDS011;47065;52.898;6.992;2023-04-24T13:22:40;6.60;;;1.70;;
61200;SDS011;47065;52.898;6.992;2023-04-24T13:25:06;4.07;;;1.35;;
61200;SDS011;47065;52.898;6.992;2023-04-24T13:27:32;2.60;;;1.77;;
61200;SDS011;47065;52.898;6.992;2023-04-24T13:29:58;2.65;;;1.95;;
61200;SDS011;47065;52.898;6.992;2023-04-24T13:32:23;3.75;;;1.35;;
61200;SDS011;47065;52.898;6.992;2023-04-24T13:34:50;4.43;;;1.42;;
61200;SDS011;47065;52.898;6.992;2023-04-24T13:37:15;1.98;;;1.02;;
61200;SDS011;47065;52.898;6.992;2023-04-24T13:39:41;3.78;;;1.55;;
61200;SDS011;47065;52.898;6.992;2023-04-24T13:42:07;4.90;;;1.35;;
61200;SDS011;47065;52.898;6.992;2023-04-24T13:44:32;6.32;;;1.17;;
61200;SDS011;47065;52.898;6.992;2023-04-24T13:46:58;2.70;;;1.30;;
61200;SDS011;47065;52.898;6.992;2023-04-24T13:49:24;1.83;;;1.20;;
61200;SDS011;47065;52.898;6.992;2023-04-24T13:51:50;5.60;;;1.63;;
61200;SDS011;47065;52.898;6.992;2023-04-24T13:54:16;5.72;;;1.27;;
61200;SDS011;47065;52.898;6.992;2023-04-24T13:56:42;1.95;;;1.48;;
61200;SDS011;47065;52.898;6.992;2023-04-24T13:59:08;3.72;;;1.00;;
61200;SDS011;47065;52.898;6.992;2023-04-24T14:01:34;6.65;;;1.40;;
61200;SDS011;47065;52.898;6.992;2023-04-24T14:04:00;4.63;;;1.25;;
61200;SDS011;47065;52.898;6.992;2023-04-24T14:06:25;5.25;;;1.20;;
61200;SDS011;47065;52.898;6.992;2023-04-24T14:08:51;4.50;;;1.38;;
61200;SDS011;47065;52.898;6.992;2023-04-24T14:11:17;2.75;;;1.23;;
61200;SDS011;47065;52.898;6.992;2023-04-24T14:13:43;2.60;;;1.00;;
61200;SDS011;47065;52.898;6.992;2023-04-24T14:16:09;2.88;;;0.88;;
61200;SDS011;47065;52.898;6.992;2023-04-24T14:18:35;4.63;;;1.25;;
61200;SDS011;47065;52.898;6.992;2023-04-24T14:21:01;5.03;;;1.10;;
61200;SDS011;47065;52.898;6.992;2023-04-24T14:23:28;8.23;;;1.48;;
61200;SDS011;47065;52.898;6.992;2023-04-24T14:25:53;2.65;;;1.25;;
61200;SDS011;47065;52.898;6.992;2023-04-24T14:28:19;6.15;;;1.00;;
61200;SDS011;47065;52.898;6.992;2023-04-24T14:30:45;3.42;;;0.85;;
61200;SDS011;47065;52.898;6.992;2023-04-24T14:33:12;1.52;;;0.90;;
61200;SDS011;47065;52.898;6.992;2023-04-24T14:35:38;5.05;;;1.30;;
61200;SDS011;47065;52.898;6.992;2023-04-24T14:38:05;6.07;;;1.38;;
61200;SDS011;47065;52.898;6.992;2023-04-24T14:40:30;3.95;;;1.67;;
61200;SDS011;47065;52.898;6.992;2023-04-24T14:42:57;6.32;;;1.55;;
61200;SDS011;47065;52.898;6.992;2023-04-24T14:45:24;2.70;;;1.20;;
61200;SDS011;47065;52.898;6.992;2023-04-24T14:47:50;7.72;;;1.60;;
61200;SDS011;47065;52.898;6.992;2023-04-24T14:50:16;6.75;;;1.23;;
61200;SDS011;47065;52.898;6.992;2023-04-24T14:52:41;9.85;;;2.08;;